createdAt,value
2019-06-26T00:00:36.365Z,55.08
2019-06-26T00:01:43.484Z,55.16
2019-06-26T00:02:52.338Z,55.22
2019-06-26T00:04:00.411Z,55.28
2019-06-26T00:05:09.926Z,55.30
2019-06-26T00:06:17.914Z,55.31
2019-06-26T00:07:28.362Z,55.27
2019-06-26T00:08:36.789Z,55.19
2019-06-26T00:09:45.784Z,55.29
2019-06-26T00:10:53.938Z,55.25
2019-06-26T00:12:03.057Z,55.29
2019-06-26T00:13:34.720Z,55.32
2019-06-26T00:14:43.874Z,55.30
2019-06-26T00:15:52.050Z,55.38
2019-06-26T00:17:01.112Z,55.42
2019-06-26T00:18:09.298Z,55.40
2019-06-26T00:19:18.313Z,55.30
2019-06-26T00:20:26.837Z,55.33
2019-06-26T00:21:35.810Z,55.30
2019-06-26T00:22:43.952Z,55.43
2019-06-26T00:23:52.824Z,55.48
2019-06-26T00:25:01.171Z,55.46
2019-06-26T00:26:10.191Z,55.38
2019-06-26T00:27:18.342Z,55.59
2019-06-26T00:28:27.216Z,55.63
2019-06-26T00:29:35.272Z,55.72
2019-06-26T00:30:44.992Z,55.72
2019-06-26T00:31:53.309Z,55.68
2019-06-26T00:33:02.102Z,55.70
2019-06-26T00:34:10.031Z,55.70
2019-06-26T00:35:19.156Z,55.63
2019-06-26T00:36:27.762Z,55.77
2019-06-26T00:37:36.631Z,55.64
2019-06-26T00:38:49.161Z,55.72
2019-06-26T00:39:58.124Z,55.72
2019-06-26T00:41:06.772Z,55.85
2019-06-26T00:42:15.867Z,56.03
2019-06-26T00:43:24.033Z,56.09
2019-06-26T00:44:32.949Z,55.93
2019-06-26T00:45:41.106Z,56.07
2019-06-26T00:46:50.052Z,56.07
2019-06-26T00:47:58.316Z,56.15
2019-06-26T00:49:07.243Z,56.23
2019-06-26T00:50:17.487Z,56.32
2019-06-26T00:51:26.820Z,56.46
2019-06-26T00:52:35.121Z,56.51
2019-06-26T00:53:44.038Z,56.50
2019-06-26T00:54:52.269Z,56.63
2019-06-26T00:56:01.080Z,56.66
2019-06-26T00:57:09.125Z,56.67
2019-06-26T00:58:18.005Z,56.64
2019-06-26T00:59:26.170Z,56.80
2019-06-26T01:00:47.813Z,56.90
2019-06-26T01:01:56.020Z,57.20
2019-06-26T01:03:04.781Z,57.26
2019-06-26T01:04:14.464Z,57.25
2019-06-26T01:05:23.409Z,57.22
2019-06-26T01:06:43.661Z,57.47
2019-06-26T01:07:52.429Z,57.37
2019-06-26T01:09:00.566Z,57.36
2019-06-26T01:10:12.068Z,57.18
2019-06-26T01:11:21.690Z,57.24
2019-06-26T01:12:30.583Z,57.29
2019-06-26T01:13:38.556Z,57.16
2019-06-26T01:14:47.416Z,57.12
2019-06-26T01:15:55.595Z,57.04
2019-06-26T01:17:04.997Z,57.02
2019-06-26T01:18:13.424Z,57.11
2019-06-26T01:19:22.588Z,57.06
2019-06-26T01:20:30.804Z,57.17
2019-06-26T01:21:39.469Z,57.05
2019-06-26T01:22:47.595Z,57.04
2019-06-26T01:23:56.304Z,57.23
2019-06-26T01:25:04.957Z,57.27
2019-06-26T01:26:13.322Z,57.17
2019-06-26T01:27:21.315Z,57.50
2019-06-26T01:28:30.782Z,57.74
2019-06-26T01:29:38.877Z,57.83
2019-06-26T01:30:47.722Z,57.86
2019-06-26T01:31:55.805Z,57.98
2019-06-26T01:33:04.725Z,58.00
2019-06-26T01:34:12.499Z,57.99
2019-06-26T01:35:21.397Z,58.07
2019-06-26T01:36:29.509Z,57.97
2019-06-26T01:37:38.501Z,57.94
2019-06-26T01:38:46.499Z,57.91
2019-06-26T01:39:55.384Z,57.82
2019-06-26T01:41:03.775Z,57.87
2019-06-26T01:42:12.587Z,57.84
2019-06-26T01:43:20.741Z,57.88
2019-06-26T01:44:29.860Z,57.97
2019-06-26T01:45:37.969Z,58.00
2019-06-26T01:46:46.993Z,58.07
2019-06-26T01:47:55.072Z,58.30
2019-06-26T01:49:04.073Z,58.34
2019-06-26T01:50:12.940Z,58.30
2019-06-26T01:51:22.415Z,58.61
2019-06-26T01:52:30.614Z,58.54
2019-06-26T01:53:39.641Z,58.44
2019-06-26T01:54:47.679Z,58.55
2019-06-26T01:55:56.847Z,58.52
2019-06-26T01:57:05.071Z,58.64
2019-06-26T01:58:13.767Z,58.64
2019-06-26T01:59:21.626Z,58.65
2019-06-26T02:00:30.010Z,58.61
2019-06-26T02:01:38.138Z,58.52
2019-06-26T02:02:47.360Z,58.50
2019-06-26T02:03:55.678Z,58.46
2019-06-26T02:05:04.962Z,58.57
2019-06-26T02:06:13.301Z,58.75
2019-06-26T02:07:22.272Z,58.78
2019-06-26T02:08:30.493Z,58.85
2019-06-26T02:09:39.239Z,58.83
2019-06-26T02:10:47.167Z,58.79
2019-06-26T02:11:56.025Z,58.70
2019-06-26T02:13:04.651Z,58.76
2019-06-26T02:14:13.361Z,58.89
2019-06-26T02:15:21.830Z,58.82
2019-06-26T02:16:30.658Z,58.83
2019-06-26T02:17:38.678Z,58.81
2019-06-26T02:19:03.588Z,58.69
2019-06-26T02:20:12.228Z,58.57
2019-06-26T02:21:21.252Z,58.44
2019-06-26T02:22:29.387Z,58.62
2019-06-26T02:23:38.347Z,58.62
2019-06-26T02:24:46.461Z,58.77
2019-06-26T02:25:55.261Z,58.67
2019-06-26T02:27:03.583Z,58.70
2019-06-26T02:28:12.137Z,58.80
2019-06-26T02:29:20.369Z,58.68
2019-06-26T02:30:29.489Z,58.93
2019-06-26T02:31:37.586Z,58.83
2019-06-26T02:32:46.277Z,58.81
2019-06-26T02:33:54.451Z,58.93
2019-06-26T02:35:07.789Z,59.06
2019-06-26T02:36:13.178Z,59.03
2019-06-26T02:37:22.026Z,59.24
2019-06-26T02:38:30.106Z,59.16
2019-06-26T02:39:38.879Z,59.07
2019-06-26T02:40:47.186Z,59.17
2019-06-26T02:41:56.188Z,59.30
2019-06-26T02:43:07.064Z,59.23
2019-06-26T02:44:15.596Z,59.27
2019-06-26T02:45:24.197Z,59.33
2019-06-26T02:46:33.075Z,59.09
2019-06-26T02:47:41.152Z,59.37
2019-06-26T02:48:50.016Z,59.34
2019-06-26T02:49:58.119Z,59.37
2019-06-26T02:51:07.143Z,59.23
2019-06-26T02:52:15.213Z,59.37
2019-06-26T02:53:24.134Z,59.27
2019-06-26T02:54:32.375Z,59.46
2019-06-26T02:55:41.218Z,59.54
2019-06-26T02:56:49.474Z,59.58
2019-06-26T02:57:58.121Z,59.58
2019-06-26T02:59:06.339Z,59.65
2019-06-26T03:00:16.113Z,59.46
2019-06-26T03:01:24.507Z,59.43
2019-06-26T03:02:33.313Z,59.38
2019-06-26T03:03:41.779Z,59.60
2019-06-26T03:04:51.257Z,59.70
2019-06-26T03:05:59.242Z,59.97
2019-06-26T03:07:08.149Z,60.11
2019-06-26T03:08:16.110Z,60.04
2019-06-26T03:09:24.832Z,60.38
2019-06-26T03:10:33.480Z,60.38
2019-06-26T03:11:42.252Z,60.37
2019-06-26T03:12:50.303Z,60.26
2019-06-26T03:13:59.017Z,60.38
2019-06-26T03:15:09.986Z,60.39
2019-06-26T03:16:18.772Z,60.37
2019-06-26T03:17:27.440Z,60.33
2019-06-26T03:18:36.297Z,60.49
2019-06-26T03:19:44.587Z,60.37
2019-06-26T03:20:57.974Z,60.28
2019-06-26T03:22:06.127Z,60.34
2019-06-26T03:23:15.459Z,60.22
2019-06-26T03:24:23.501Z,60.35
2019-06-26T03:25:32.276Z,60.24
2019-06-26T03:26:40.302Z,60.50
2019-06-26T03:27:49.242Z,60.63
2019-06-26T03:28:57.032Z,60.66
2019-06-26T03:30:08.438Z,60.48
2019-06-26T03:31:16.811Z,60.83
2019-06-26T03:32:25.643Z,60.77
2019-06-26T03:33:34.155Z,60.86
2019-06-26T03:34:43.026Z,60.97
2019-06-26T03:35:50.916Z,60.71
2019-06-26T03:36:59.285Z,60.69
2019-06-26T03:38:07.557Z,60.63
2019-06-26T03:39:16.317Z,60.68
2019-06-26T03:40:24.518Z,60.76
2019-06-26T03:41:33.604Z,60.66
2019-06-26T03:42:41.751Z,60.49
2019-06-26T03:43:50.506Z,60.22
2019-06-26T03:44:58.626Z,60.57
2019-06-26T03:46:07.547Z,60.73
2019-06-26T03:47:15.704Z,61.06
2019-06-26T03:48:24.659Z,61.13
2019-06-26T03:49:32.665Z,61.11
2019-06-26T03:50:41.262Z,61.11
2019-06-26T03:51:49.387Z,61.09
2019-06-26T03:52:58.321Z,61.17
2019-06-26T03:54:06.452Z,61.21
2019-06-26T03:55:15.543Z,61.00
2019-06-26T03:56:23.476Z,61.15
2019-06-26T03:57:35.285Z,60.99
2019-06-26T03:58:42.213Z,61.04
2019-06-26T03:59:50.961Z,60.91
2019-06-26T04:00:58.996Z,61.03
2019-06-26T04:02:07.954Z,61.23
2019-06-26T04:03:16.340Z,61.29
2019-06-26T04:04:27.897Z,61.20
2019-06-26T04:05:36.316Z,61.19
2019-06-26T04:06:45.861Z,61.31
2019-06-26T04:07:54.177Z,61.31
2019-06-26T04:09:03.201Z,61.12
2019-06-26T04:10:11.711Z,61.30
2019-06-26T04:11:20.554Z,61.07
2019-06-26T04:12:28.545Z,61.28
2019-06-26T04:13:37.470Z,61.32
2019-06-26T04:14:45.904Z,61.33
2019-06-26T04:15:54.711Z,61.60
2019-06-26T04:17:02.911Z,61.41
2019-06-26T04:18:11.842Z,61.48
2019-06-26T04:19:19.970Z,61.50
2019-06-26T04:20:28.943Z,61.44
2019-06-26T04:21:37.273Z,61.39
2019-06-26T04:22:47.667Z,61.26
2019-06-26T04:23:55.927Z,61.37
2019-06-26T04:25:06.589Z,61.24
2019-06-26T04:26:15.077Z,61.31
2019-06-26T04:27:23.853Z,61.08
2019-06-26T04:28:32.032Z,60.69
2019-06-26T04:29:40.922Z,61.23
2019-06-26T04:30:49.159Z,61.31
2019-06-26T04:31:58.110Z,61.29
2019-06-26T04:33:06.331Z,61.14
2019-06-26T04:34:15.474Z,61.24
2019-06-26T04:35:23.337Z,61.35
2019-06-26T04:36:32.320Z,61.33
2019-06-26T04:37:40.395Z,61.09
2019-06-26T04:38:48.627Z,61.31
2019-06-26T04:39:56.868Z,61.40
2019-06-26T04:41:06.117Z,61.31
2019-06-26T04:42:14.382Z,61.15
2019-06-26T04:43:23.325Z,61.20
2019-06-26T04:44:31.417Z,61.12
2019-06-26T04:45:40.498Z,61.42
2019-06-26T04:46:48.407Z,61.43
2019-06-26T04:47:57.534Z,61.29
2019-06-26T04:49:05.863Z,61.02
2019-06-26T04:50:17.025Z,61.05
2019-06-26T04:51:25.814Z,61.11
2019-06-26T04:52:34.822Z,60.82
2019-06-26T04:53:43.153Z,60.69
2019-06-26T04:54:52.466Z,60.86
2019-06-26T04:56:00.456Z,60.94
2019-06-26T04:57:09.499Z,61.00
2019-06-26T04:58:17.565Z,61.05
2019-06-26T04:59:26.299Z,60.88
2019-06-26T05:00:34.463Z,60.84
2019-06-26T05:01:43.254Z,60.87
2019-06-26T05:02:51.236Z,60.79
2019-06-26T05:04:01.446Z,60.62
2019-06-26T05:05:10.311Z,60.39
2019-06-26T05:06:19.142Z,60.32
2019-06-26T05:07:27.078Z,60.49
2019-06-26T05:08:36.400Z,60.68
2019-06-26T05:09:44.455Z,60.71
2019-06-26T05:10:53.603Z,60.54
2019-06-26T05:12:01.820Z,60.38
2019-06-26T05:13:10.719Z,60.32
2019-06-26T05:14:19.114Z,60.09
2019-06-26T05:15:28.075Z,60.16
2019-06-26T05:16:36.464Z,60.48
2019-06-26T05:17:45.455Z,60.21
2019-06-26T05:18:53.783Z,60.29
2019-06-26T05:20:02.809Z,60.33
2019-06-26T05:21:10.990Z,60.53
2019-06-26T05:22:20.177Z,60.65
2019-06-26T05:23:28.157Z,60.30
2019-06-26T05:24:36.887Z,60.15
2019-06-26T05:25:44.951Z,60.24
2019-06-26T05:26:54.221Z,60.42
2019-06-26T05:28:02.472Z,60.35
2019-06-26T05:29:11.321Z,60.51
2019-06-26T05:30:21.186Z,60.43
2019-06-26T05:31:30.122Z,60.65
2019-06-26T05:32:38.607Z,60.81
2019-06-26T05:33:47.444Z,60.89
2019-06-26T05:34:55.619Z,60.80
2019-06-26T05:36:04.659Z,60.56
2019-06-26T05:37:12.952Z,60.60
2019-06-26T05:38:22.059Z,60.51
2019-06-26T05:39:30.238Z,60.67
2019-06-26T05:40:39.100Z,60.69
2019-06-26T05:41:47.580Z,60.50
2019-06-26T05:42:56.200Z,60.41
2019-06-26T05:44:05.724Z,60.35
2019-06-26T05:46:35.839Z,60.29
2019-06-26T05:47:44.935Z,60.13
2019-06-26T05:48:53.008Z,59.78
2019-06-26T05:50:02.116Z,59.88
2019-06-26T05:51:10.350Z,59.88
2019-06-26T05:52:19.721Z,59.83
2019-06-26T05:53:27.891Z,59.66
2019-06-26T05:54:37.326Z,59.50
2019-06-26T05:55:45.755Z,59.32
2019-06-26T05:56:55.051Z,58.93
2019-06-26T05:58:03.458Z,58.39
2019-06-26T05:59:12.447Z,58.32
2019-06-26T06:00:21.328Z,58.41
2019-06-26T06:01:30.659Z,58.71
2019-06-26T06:02:39.701Z,58.86
2019-06-26T06:03:49.180Z,58.74
2019-06-26T06:04:57.312Z,58.21
2019-06-26T06:06:06.676Z,57.85
2019-06-26T06:07:15.098Z,58.15
2019-06-26T06:08:23.962Z,58.09
2019-06-26T06:09:32.790Z,58.15
2019-06-26T06:10:41.748Z,58.08
2019-06-26T06:11:50.043Z,57.91
2019-06-26T06:12:59.198Z,57.86
2019-06-26T06:14:07.792Z,57.25
2019-06-26T06:15:18.093Z,57.39
2019-06-26T06:16:26.659Z,57.23
2019-06-26T06:17:35.649Z,57.32
2019-06-26T06:18:43.852Z,57.56
2019-06-26T06:19:53.079Z,57.41
2019-06-26T06:21:01.104Z,57.60
2019-06-26T06:22:10.362Z,57.16
2019-06-26T06:23:18.696Z,57.40
2019-06-26T06:24:27.809Z,56.86
2019-06-26T06:25:36.181Z,57.06
2019-06-26T06:26:45.442Z,57.11
2019-06-26T06:27:54.579Z,56.25
2019-06-26T06:30:21.297Z,56.75
2019-06-26T06:31:30.534Z,56.61
2019-06-26T06:32:39.030Z,56.09
2019-06-26T06:33:48.289Z,56.12
2019-06-26T06:34:56.462Z,55.31
2019-06-26T06:36:09.443Z,54.48
2019-06-26T06:37:15.829Z,54.19
2019-06-26T06:38:24.858Z,53.84
2019-06-26T06:39:32.744Z,54.14
2019-06-26T06:40:41.522Z,53.83
2019-06-26T06:41:49.656Z,53.25
2019-06-26T06:42:58.765Z,53.84
2019-06-26T06:44:07.041Z,53.75
2019-06-26T06:45:16.408Z,53.24
2019-06-26T06:47:03.323Z,53.43
2019-06-26T06:48:05.453Z,53.78
2019-06-26T06:49:45.280Z,53.40
2019-06-26T06:50:59.810Z,53.20
2019-06-26T06:52:20.950Z,52.88
2019-06-26T06:53:50.902Z,53.18
2019-06-26T06:55:22.182Z,52.99
2019-06-26T06:56:33.678Z,53.28
2019-06-26T06:57:42.176Z,52.44
2019-06-26T06:58:50.904Z,52.63
2019-06-26T06:59:58.982Z,52.04
2019-06-26T07:01:07.900Z,52.04
2019-06-26T07:02:16.018Z,52.10
2019-06-26T07:03:24.837Z,51.81
2019-06-26T07:04:32.891Z,51.87
2019-06-26T07:05:41.611Z,51.85
2019-06-26T07:06:49.537Z,51.86
2019-06-26T07:07:58.525Z,50.88
2019-06-26T07:09:08.085Z,51.20
2019-06-26T07:10:17.069Z,51.43
2019-06-26T07:11:25.088Z,51.51
2019-06-26T07:12:37.322Z,51.55
2019-06-26T07:13:45.398Z,51.38
2019-06-26T07:14:54.367Z,50.42
2019-06-26T07:16:02.354Z,51.01
2019-06-26T07:17:20.739Z,50.40
2019-06-26T07:18:20.721Z,50.08
2019-06-26T07:19:29.443Z,50.49
2019-06-26T07:20:37.494Z,50.09
2019-06-26T07:21:46.474Z,49.81
2019-06-26T07:22:54.407Z,49.45
2019-06-26T07:24:03.499Z,49.30
2019-06-26T07:25:11.926Z,49.34
2019-06-26T07:26:20.906Z,49.89
2019-06-26T07:27:28.787Z,49.80
2019-06-26T07:28:37.613Z,49.75
2019-06-26T07:29:45.764Z,49.25
2019-06-26T07:30:54.587Z,49.30
2019-06-26T07:32:02.389Z,49.34
2019-06-26T07:33:11.066Z,49.53
2019-06-26T07:34:19.069Z,49.12
2019-06-26T07:35:27.795Z,49.00
2019-06-26T07:36:36.016Z,49.16
2019-06-26T07:37:44.827Z,49.02
2019-06-26T07:38:53.262Z,49.06
2019-06-26T07:40:02.571Z,48.99
2019-06-26T07:41:11.039Z,49.03
2019-06-26T07:42:19.767Z,48.66
2019-06-26T07:43:27.972Z,48.43
2019-06-26T07:44:36.818Z,48.15
2019-06-26T07:45:44.733Z,48.71
2019-06-26T07:46:53.510Z,48.89
2019-06-26T07:48:01.668Z,49.17
2019-06-26T07:49:11.531Z,49.14
2019-06-26T07:50:20.014Z,49.40
2019-06-26T07:51:28.800Z,49.52
2019-06-26T07:52:37.578Z,48.19
2019-06-26T07:53:46.613Z,48.22
2019-06-26T07:54:54.850Z,48.09
2019-06-26T07:56:03.893Z,47.95
2019-06-26T07:57:12.097Z,48.04
2019-06-26T07:58:20.968Z,48.19
2019-06-26T07:59:29.099Z,47.98
2019-06-26T08:00:38.087Z,47.10
2019-06-26T08:01:46.030Z,47.11
2019-06-26T08:02:54.777Z,46.89
2019-06-26T08:04:03.255Z,46.77
2019-06-26T08:05:13.267Z,46.22
2019-06-26T08:06:23.016Z,44.57
2019-06-26T08:07:32.185Z,44.85
2019-06-26T08:08:40.470Z,44.28
2019-06-26T08:09:49.875Z,44.77
2019-06-26T08:10:58.070Z,44.74
2019-06-26T08:12:07.483Z,45.33
2019-06-26T08:13:15.700Z,45.11
2019-06-26T08:14:23.981Z,44.43
2019-06-26T08:15:32.214Z,44.78
2019-06-26T08:16:40.958Z,44.66
2019-06-26T08:17:59.772Z,45.16
2019-06-26T08:19:00.637Z,44.82
2019-06-26T08:20:08.941Z,45.15
2019-06-26T08:21:19.473Z,44.36
2019-06-26T08:22:27.612Z,44.82
2019-06-26T08:23:36.654Z,44.24
2019-06-26T08:24:45.035Z,43.68
2019-06-26T08:25:54.994Z,42.86
2019-06-26T08:27:03.003Z,43.20
2019-06-26T08:28:11.223Z,43.48
2019-06-26T08:29:19.383Z,42.62
2019-06-26T08:30:28.722Z,42.72
2019-06-26T08:31:36.909Z,42.11
2019-06-26T08:32:46.053Z,43.04
2019-06-26T08:33:54.044Z,42.91
2019-06-26T08:35:02.857Z,43.00
2019-06-26T08:36:10.884Z,42.69
2019-06-26T08:37:19.842Z,42.30
2019-06-26T08:38:27.977Z,42.22
2019-06-26T08:39:36.896Z,42.66
2019-06-26T08:40:44.934Z,42.53
2019-06-26T08:41:54.108Z,43.06
2019-06-26T08:43:02.054Z,43.12
2019-06-26T08:44:10.844Z,43.23
2019-06-26T08:45:18.994Z,42.30
2019-06-26T08:46:27.904Z,42.12
2019-06-26T08:47:36.028Z,42.29
2019-06-26T08:48:45.067Z,42.45
2019-06-26T08:49:53.933Z,42.66
2019-06-26T08:51:02.882Z,43.07
2019-06-26T08:52:11.553Z,43.03
2019-06-26T08:53:20.430Z,42.99
2019-06-26T08:54:28.595Z,42.48
2019-06-26T08:55:37.503Z,41.89
2019-06-26T08:56:45.657Z,42.32
2019-06-26T08:57:55.030Z,42.01
2019-06-26T08:59:02.998Z,42.19
2019-06-26T09:00:15.091Z,41.44
2019-06-26T09:01:23.556Z,41.88
2019-06-26T09:02:32.357Z,41.54
2019-06-26T09:03:42.077Z,41.64
2019-06-26T09:04:51.075Z,42.09
2019-06-26T09:05:59.631Z,41.50
2019-06-26T09:07:07.993Z,41.04
2019-06-26T09:08:16.170Z,41.14
2019-06-26T09:09:25.086Z,41.23
2019-06-26T09:10:33.119Z,41.43
2019-06-26T09:11:42.216Z,41.73
2019-06-26T09:12:50.430Z,41.85
2019-06-26T09:13:59.428Z,40.64
2019-06-26T09:15:08.400Z,41.32
2019-06-26T09:16:17.074Z,41.60
2019-06-26T09:17:25.092Z,41.04
2019-06-26T09:18:35.873Z,40.54
2019-06-26T09:19:43.824Z,40.71
2019-06-26T09:20:52.502Z,40.26
2019-06-26T09:22:00.547Z,40.91
2019-06-26T09:23:09.617Z,40.14
2019-06-26T09:24:18.036Z,40.11
2019-06-26T09:25:26.539Z,39.70
2019-06-26T09:26:34.570Z,39.48
2019-06-26T09:27:44.508Z,39.80
2019-06-26T09:28:52.656Z,39.49
2019-06-26T09:30:01.262Z,39.86
2019-06-26T09:31:09.121Z,40.42
2019-06-26T09:32:18.003Z,40.36
2019-06-26T09:33:26.211Z,39.30
2019-06-26T09:34:35.033Z,39.91
2019-06-26T09:35:43.315Z,40.04
2019-06-26T09:36:52.121Z,39.70
2019-06-26T09:38:00.180Z,38.23
2019-06-26T09:39:10.538Z,37.90
2019-06-26T09:40:19.402Z,38.50
2019-06-26T09:41:28.331Z,38.80
2019-06-26T09:42:36.366Z,38.12
2019-06-26T09:43:45.331Z,38.55
2019-06-26T09:44:53.523Z,38.99
2019-06-26T09:46:02.326Z,38.92
2019-06-26T09:47:10.537Z,38.14
2019-06-26T09:48:19.493Z,38.77
2019-06-26T09:49:27.342Z,38.25
2019-06-26T09:50:36.145Z,38.10
2019-06-26T09:51:44.050Z,37.58
2019-06-26T09:52:53.143Z,36.94
2019-06-26T09:54:01.000Z,37.00
2019-06-26T09:55:10.374Z,37.77
2019-06-26T09:56:18.449Z,37.93
2019-06-26T09:57:27.412Z,37.80
2019-06-26T09:58:35.316Z,36.26
2019-06-26T09:59:44.602Z,36.22
2019-06-26T10:00:52.869Z,36.92
2019-06-26T10:02:02.028Z,35.81
2019-06-26T10:03:10.291Z,35.65
2019-06-26T10:04:19.406Z,35.12
2019-06-26T10:05:27.436Z,34.80
2019-06-26T10:06:36.156Z,34.40
2019-06-26T10:07:44.264Z,34.51
2019-06-26T10:08:54.555Z,34.45
2019-06-26T10:10:03.411Z,34.87
2019-06-26T10:11:12.268Z,34.89
2019-06-26T10:12:20.777Z,35.16
2019-06-26T10:13:29.918Z,35.46
2019-06-26T10:14:47.460Z,34.52
2019-06-26T10:15:48.281Z,33.57
2019-06-26T10:16:56.784Z,34.23
2019-06-26T10:18:06.126Z,34.87
2019-06-26T10:20:32.186Z,34.42
2019-06-26T10:21:40.911Z,32.36
2019-06-26T10:22:49.202Z,32.82
2019-06-26T10:23:58.116Z,31.90
2019-06-26T10:25:11.087Z,31.25
2019-06-26T10:26:17.899Z,31.49
2019-06-26T10:27:25.783Z,31.91
2019-06-26T10:28:34.554Z,32.07
2019-06-26T10:29:42.639Z,31.47
2019-06-26T10:30:51.811Z,31.63
2019-06-26T10:32:00.495Z,31.59
2019-06-26T10:33:09.285Z,31.00
2019-06-26T10:34:17.377Z,31.17
2019-06-26T10:35:26.140Z,30.88
2019-06-26T10:36:33.946Z,30.86
2019-06-26T10:37:42.570Z,30.45
2019-06-26T10:38:50.790Z,30.82
2019-06-26T10:39:59.592Z,31.01
2019-06-26T10:41:07.569Z,30.38
2019-06-26T10:42:16.737Z,30.65
2019-06-26T10:43:24.922Z,31.29
2019-06-26T10:44:33.917Z,31.31
2019-06-26T10:45:41.924Z,31.69
2019-06-26T10:46:50.695Z,31.66
2019-06-26T10:47:58.689Z,29.33
2019-06-26T10:49:07.599Z,29.87
2019-06-26T10:50:16.377Z,30.10
2019-06-26T10:51:25.217Z,29.60
2019-06-26T10:52:33.260Z,31.08
2019-06-26T10:53:41.960Z,29.67
2019-06-26T10:54:49.923Z,29.61
2019-06-26T10:55:58.572Z,30.07
2019-06-26T10:57:06.472Z,28.76
2019-06-26T10:58:15.366Z,29.43
2019-06-26T10:59:23.655Z,28.88
2019-06-26T11:00:33.915Z,28.38
2019-06-26T11:01:41.945Z,27.59
2019-06-26T11:02:50.834Z,28.76
2019-06-26T11:03:59.154Z,28.08
2019-06-26T11:05:10.882Z,27.33
2019-06-26T11:06:18.720Z,27.05
2019-06-26T11:07:27.513Z,26.62
2019-06-26T11:08:35.397Z,26.46
2019-06-26T11:09:43.703Z,27.16
2019-06-26T11:10:51.695Z,27.19
2019-06-26T11:12:00.438Z,27.15
2019-06-26T11:13:08.695Z,26.50
2019-06-26T11:14:17.400Z,26.80
2019-06-26T11:15:26.347Z,27.32
2019-06-26T11:16:35.254Z,27.76
2019-06-26T11:17:43.354Z,26.65
2019-06-26T11:18:52.278Z,27.62
2019-06-26T11:20:00.221Z,26.41
2019-06-26T11:21:09.243Z,27.05
2019-06-26T11:22:17.176Z,26.77
2019-06-26T11:23:26.053Z,27.02
2019-06-26T11:24:34.093Z,26.49
2019-06-26T11:25:44.462Z,25.76
2019-06-26T11:26:52.933Z,25.94
2019-06-26T11:28:01.950Z,26.61
2019-06-26T11:29:10.390Z,27.06
2019-06-26T11:30:22.333Z,26.13
2019-06-26T11:31:30.454Z,26.39
2019-06-26T11:32:40.240Z,25.98
2019-06-26T11:33:48.191Z,25.93
2019-06-26T11:34:57.258Z,25.86
2019-06-26T11:36:05.685Z,25.46
2019-06-26T11:37:14.532Z,25.68
2019-06-26T11:38:22.439Z,26.03
2019-06-26T11:39:31.411Z,26.03
2019-06-26T11:40:39.625Z,26.64
2019-06-26T11:41:48.665Z,25.15
2019-06-26T11:42:56.912Z,24.89
2019-06-26T11:44:05.689Z,25.71
2019-06-26T11:45:15.050Z,25.58
2019-06-26T11:46:23.591Z,25.58
2019-06-26T11:47:31.736Z,25.33
2019-06-26T11:48:40.503Z,25.42
2019-06-26T11:49:59.498Z,25.18
2019-06-26T11:50:58.986Z,25.50
2019-06-26T11:52:07.142Z,25.79
2019-06-26T11:53:16.381Z,25.31
2019-06-26T11:54:24.361Z,25.23
2019-06-26T11:55:33.213Z,25.42
2019-06-26T11:56:41.485Z,23.82
2019-06-26T11:57:51.516Z,23.58
2019-06-26T11:58:59.715Z,24.14
2019-06-26T12:00:12.924Z,24.25
2019-06-26T12:01:21.408Z,24.56
2019-06-26T12:02:30.092Z,24.40
2019-06-26T12:03:38.168Z,23.00
2019-06-26T12:04:46.967Z,22.82
2019-06-26T12:06:10.528Z,23.32
2019-06-26T12:07:05.353Z,23.48
2019-06-26T12:08:13.463Z,23.84
2019-06-26T12:09:22.223Z,24.32
2019-06-26T12:10:30.219Z,24.48
2019-06-26T12:11:38.888Z,23.68
2019-06-26T12:12:47.090Z,24.22
2019-06-26T12:13:56.141Z,24.96
2019-06-26T12:15:04.220Z,24.01
2019-06-26T12:16:13.156Z,24.62
2019-06-26T12:17:21.137Z,24.89
2019-06-26T12:18:29.162Z,25.31
2019-06-26T12:19:37.200Z,25.46
2019-06-26T12:20:46.191Z,25.19
2019-06-26T12:21:54.373Z,25.05
2019-06-26T12:23:03.066Z,24.75
2019-06-26T12:24:11.365Z,24.34
2019-06-26T12:25:20.391Z,24.71
2019-06-26T12:26:28.315Z,24.65
2019-06-26T12:27:37.418Z,24.43
2019-06-26T12:28:45.531Z,24.06
2019-06-26T12:29:54.315Z,24.03
2019-06-26T12:31:02.605Z,23.91
2019-06-26T12:32:11.508Z,23.87
2019-06-26T12:33:19.575Z,24.08
2019-06-26T12:34:28.778Z,24.24
2019-06-26T12:35:36.678Z,24.06
2019-06-26T12:36:45.577Z,24.04
2019-06-26T12:37:55.328Z,24.23
2019-06-26T12:39:04.287Z,23.90
2019-06-26T12:40:14.281Z,24.43
2019-06-26T12:41:23.275Z,24.97
2019-06-26T12:42:31.576Z,24.36
2019-06-26T12:43:40.373Z,24.81
2019-06-26T12:44:48.395Z,24.43
2019-06-26T12:45:57.198Z,24.58
2019-06-26T12:47:05.110Z,23.77
2019-06-26T12:48:16.302Z,23.67
2019-06-26T12:49:23.817Z,22.80
2019-06-26T12:50:36.019Z,23.53
2019-06-26T12:51:42.470Z,23.21
2019-06-26T12:52:51.524Z,23.11
2019-06-26T12:53:59.615Z,23.39
2019-06-26T12:55:09.369Z,23.64
2019-06-26T12:56:17.654Z,22.95
2019-06-26T12:57:26.279Z,23.61
2019-06-26T12:58:34.487Z,23.87
2019-06-26T12:59:56.464Z,23.49
2019-06-26T13:00:53.623Z,23.62
2019-06-26T13:02:02.635Z,23.55
2019-06-26T13:03:10.841Z,23.33
2019-06-26T13:04:19.858Z,23.27
2019-06-26T13:05:28.045Z,23.13
2019-06-26T13:06:36.845Z,23.48
2019-06-26T13:07:45.131Z,23.34
2019-06-26T13:08:54.087Z,22.72
2019-06-26T13:10:02.254Z,22.91
2019-06-26T13:11:11.186Z,22.59
2019-06-26T13:12:19.620Z,23.69
2019-06-26T13:13:28.644Z,23.88
2019-06-26T13:14:36.677Z,24.31
2019-06-26T13:15:45.433Z,24.28
2019-06-26T13:16:53.597Z,23.78
2019-06-26T13:18:02.634Z,23.80
2019-06-26T13:19:11.324Z,24.03
2019-06-26T13:20:20.501Z,24.14
2019-06-26T13:21:29.059Z,24.34
2019-06-26T13:22:38.088Z,24.59
2019-06-26T13:23:45.897Z,24.87
2019-06-26T13:24:54.975Z,24.85
2019-06-26T13:26:03.221Z,24.81
2019-06-26T13:27:12.042Z,24.54
2019-06-26T13:28:20.454Z,24.62
2019-06-26T13:29:29.353Z,24.15
2019-06-26T13:30:41.100Z,24.83
2019-06-26T13:31:49.998Z,24.57
2019-06-26T13:32:58.727Z,24.78
2019-06-26T13:34:07.398Z,24.29
2019-06-26T13:35:15.313Z,23.98
2019-06-26T13:36:24.009Z,23.82
2019-06-26T13:37:31.835Z,23.71
2019-06-26T13:38:40.731Z,23.94
2019-06-26T13:39:48.647Z,24.00
2019-06-26T13:40:57.211Z,23.83
2019-06-26T13:42:05.299Z,24.08
2019-06-26T13:43:14.097Z,24.55
2019-06-26T13:44:21.986Z,24.48
2019-06-26T13:45:30.639Z,24.58
2019-06-26T13:46:39.122Z,25.14
2019-06-26T13:47:48.000Z,24.81
2019-06-26T13:48:55.894Z,25.02
2019-06-26T13:50:05.876Z,25.58
2019-06-26T13:51:14.051Z,25.27
2019-06-26T13:52:23.060Z,25.68
2019-06-26T13:53:31.178Z,25.64
2019-06-26T13:54:39.272Z,25.92
2019-06-26T13:55:47.384Z,25.63
2019-06-26T13:56:56.430Z,25.45
2019-06-26T13:58:04.852Z,25.72
2019-06-26T13:59:13.710Z,25.81
2019-06-26T14:00:24.064Z,26.06
2019-06-26T14:01:32.690Z,25.67
2019-06-26T14:02:40.578Z,25.89
2019-06-26T14:03:49.319Z,25.49
2019-06-26T14:04:57.343Z,25.73
2019-06-26T14:06:06.277Z,25.75
2019-06-26T14:07:14.296Z,25.85
2019-06-26T14:08:23.377Z,26.21
2019-06-26T14:09:31.271Z,26.32
2019-06-26T14:10:40.203Z,26.29
2019-06-26T14:11:48.250Z,26.47
2019-06-26T14:12:57.225Z,26.54
2019-06-26T14:14:05.506Z,26.41
2019-06-26T14:15:14.700Z,26.33
2019-06-26T14:16:22.852Z,26.16
2019-06-26T14:17:31.771Z,26.61
2019-06-26T14:18:40.069Z,26.75
2019-06-26T14:19:49.193Z,26.75
2019-06-26T14:20:57.271Z,26.48
2019-06-26T14:22:06.184Z,26.61
2019-06-26T14:23:14.139Z,26.66
2019-06-26T14:24:22.824Z,26.58
2019-06-26T14:25:30.892Z,26.59
2019-06-26T14:26:39.304Z,26.84
2019-06-26T14:27:47.359Z,26.66
2019-06-26T14:28:56.099Z,26.81
2019-06-26T14:30:05.915Z,26.91
2019-06-26T14:31:14.966Z,27.23
2019-06-26T14:32:23.043Z,27.31
2019-06-26T14:33:31.963Z,27.15
2019-06-26T14:34:40.270Z,27.61
2019-06-26T14:35:49.231Z,27.54
2019-06-26T14:36:58.864Z,27.48
2019-06-26T14:38:07.871Z,27.66
2019-06-26T14:39:16.066Z,27.87
2019-06-26T14:40:24.595Z,28.08
2019-06-26T14:41:32.927Z,27.93
2019-06-26T14:42:41.303Z,28.00
2019-06-26T14:43:49.517Z,28.02
2019-06-26T14:44:58.684Z,27.95
2019-06-26T14:46:06.701Z,28.05
2019-06-26T14:47:15.468Z,28.16
2019-06-26T14:48:23.675Z,28.22
2019-06-26T14:49:32.438Z,28.16
2019-06-26T14:50:40.509Z,28.40
2019-06-26T14:51:49.294Z,28.55